Time;durP1;ratioP1;P1;durP2;ratioP2;P2;SDS_P1;SDS_P2;PMS_P1;PMS_P2;Temp;Humidity;BMP_temperature;BMP_pressure;BME280_temperature;BME280_humidity;BME280_pressure;Samples;Min_cycle;Max_cycle;Signal;HPM_P1;HPM_P2
2023/05/14 00:02:14;;;;;;;1.40;1.40;;;19.70;70.40;;;;;;5080862;28;43469;-70
2023/05/14 00:04:42;;;;;;;1.30;1.30;;;19.70;70.40;;;;;;5078563;27;44070;-72
2023/05/14 00:07:11;;;;;;;1.30;1.30;;;19.70;70.10;;;;;;5083055;28;43466;-70
2023/05/14 00:09:39;;;;;;;1.40;1.40;;;19.70;70.10;;;;;;5083157;28;43472;-70
2023/05/14 00:12:08;;;;;;;1.30;1.30;;;19.70;70.20;;;;;;5081705;28;43575;-70
2023/05/14 00:14:35;;;;;;;1.40;1.40;;;19.60;70.50;;;;;;5086984;28;43922;-70
2023/05/14 00:17:05;;;;;;;1.50;1.50;;;19.70;70.60;;;;;;5086095;28;43968;-70
2023/05/14 00:19:33;;;;;;;1.37;1.37;;;19.80;70.20;;;;;;5081570;28;43354;-71
2023/05/14 00:22:01;;;;;;;1.40;1.40;;;19.90;70.00;;;;;;5076566;28;43464;-70
2023/05/14 00:24:30;;;;;;;1.40;1.40;;;20.00;69.80;;;;;;5083463;28;43978;-70
2023/05/14 00:27:01;;;;;;;1.27;1.27;;;19.90;69.70;;;;;;5072707;28;43542;-70
2023/05/14 00:29:29;;;;;;;1.30;1.30;;;19.90;69.90;;;;;;5080096;28;43413;-70
2023/05/14 00:32:00;;;;;;;1.60;1.60;;;19.90;70.00;;;;;;5090778;27;43391;-70
2023/05/14 00:34:28;;;;;;;1.37;1.37;;;19.90;69.90;;;;;;5078983;28;43786;-70
2023/05/14 00:36:56;;;;;;;1.63;1.53;;;19.90;69.80;;;;;;5086664;28;44547;-70
2023/05/14 00:39:24;;;;;;;1.60;1.60;;;19.80;69.80;;;;;;5082061;27;44017;-70
2023/05/14 00:41:54;;;;;;;1.33;1.33;;;19.80;70.90;;;;;;5084028;27;43439;-70
2023/05/14 00:44:22;;;;;;;1.47;1.47;;;19.80;70.30;;;;;;5077601;28;45671;-69
2023/05/14 00:46:49;;;;;;;1.43;1.30;;;19.80;70.30;;;;;;5084751;27;44826;-69
2023/05/14 00:49:20;;;;;;;1.47;1.47;;;19.80;70.10;;;;;;5080234;27;43414;-69
2023/05/14 00:51:48;;;;;;;1.60;1.60;;;19.70;70.10;;;;;;5087315;28;43395;-69
2023/05/14 00:54:16;;;;;;;1.57;1.57;;;19.70;70.20;;;;;;5084965;27;43952;-70
2023/05/14 00:56:44;;;;;;;1.47;1.47;;;19.70;70.60;;;;;;5079101;27;44652;-70
2023/05/14 00:59:14;;;;;;;1.30;1.30;;;19.80;70.60;;;;;;5077411;28;43426;-70
2023/05/14 01:01:42;;;;;;;1.30;1.30;;;19.80;70.20;;;;;;5077682;28;43555;-70
2023/05/14 01:04:10;;;;;;;1.50;1.50;;;19.90;70.00;;;;;;5071005;28;46064;-70
2023/05/14 01:06:47;;;;;;;1.40;1.40;;;19.90;69.70;;;;;;5075727;28;44792;-69
2023/05/14 01:09:17;;;;;;;1.80;1.70;;;19.90;69.70;;;;;;5090550;28;43371;-70
2023/05/14 01:11:58;;;;;;;1.40;1.40;;;19.90;70.00;;;;;;5074908;28;43517;-69
2023/05/14 01:14:30;;;;;;;1.40;1.40;;;19.90;69.90;;;;;;5073005;28;46016;-69
2023/05/14 01:16:59;;;;;;;1.40;1.40;;;19.90;69.80;;;;;;5077995;28;43517;-70
2023/05/14 01:19:29;;;;;;;1.50;1.50;;;19.80;69.70;;;;;;5077329;27;43493;-70
2023/05/14 01:21:59;;;;;;;1.60;1.60;;;19.80;70.50;;;;;;5079403;28;43688;-70
2023/05/14 01:24:27;;;;;;;1.40;1.40;;;19.80;70.40;;;;;;5087966;27;43792;-69
2023/05/14 01:26:55;;;;;;;1.40;1.40;;;19.80;70.30;;;;;;5082929;28;44787;-69
2023/05/14 01:29:26;;;;;;;1.50;1.50;;;19.70;70.10;;;;;;5082995;27;43390;-69
2023/05/14 01:31:55;;;;;;;1.40;1.40;;;19.70;70.10;;;;;;5083809;27;43494;-69
2023/05/14 01:34:24;;;;;;;1.70;1.60;;;19.70;70.10;;;;;;5075117;28;45418;-69
2023/05/14 01:36:53;;;;;;;1.40;1.40;;;19.70;70.50;;;;;;5083116;28;43444;-70
2023/05/14 01:39:22;;;;;;;1.50;1.50;;;19.70;70.50;;;;;;5080929;28;43406;-70
2023/05/14 01:41:51;;;;;;;1.47;1.47;;;19.80;70.10;;;;;;5078882;28;43424;-70
2023/05/14 01:44:19;;;;;;;1.33;1.33;;;19.90;69.90;;;;;;5082900;28;44218;-69
2023/05/14 01:46:47;;;;;;;1.30;1.30;;;19.90;69.80;;;;;;5085991;28;43468;-69
2023/05/14 01:49:17;;;;;;;1.50;1.50;;;19.90;69.80;;;;;;5084843;28;43383;-70
2023/05/14 01:51:45;;;;;;;1.50;1.50;;;19.90;70.00;;;;;;5069992;28;44040;-69
2023/05/14 01:54:13;;;;;;;1.40;1.40;;;19.90;70.70;;;;;;5081010;28;44003;-70
2023/05/14 01:56:43;;;;;;;1.40;1.40;;;19.90;69.90;;;;;;5080848;28;43488;-69
2023/05/14 01:59:11;;;;;;;1.47;1.47;;;19.80;69.70;;;;;;5087117;28;43410;-70
2023/05/14 02:01:39;;;;;;;1.47;1.47;;;19.80;69.90;;;;;;5081276;28;43431;-69
2023/05/14 02:04:10;;;;;;;1.30;1.30;;;19.80;71.10;;;;;;5079679;27;45449;-70
2023/05/14 02:06:41;;;;;;;1.20;1.20;;;19.80;70.30;;;;;;5088558;27;44716;-69
2023/05/14 02:09:10;;;;;;;1.60;1.60;;;19.70;70.10;;;;;;5082631;27;43473;-70
2023/05/14 02:11:39;;;;;;;1.40;1.40;;;19.70;70.10;;;;;;5084982;28;43446;-70
2023/05/14 02:14:08;;;;;;;1.50;1.50;;;19.70;70.10;;;;;;5089119;28;43918;-70
2023/05/14 02:16:36;;;;;;;1.30;1.30;;;19.70;70.60;;;;;;5079897;28;43418;-70
2023/05/14 02:19:04;;;;;;;1.33;1.33;;;19.70;70.50;;;;;;5077086;28;43422;-70
2023/05/14 02:21:32;;;;;;;1.50;1.50;;;19.80;70.20;;;;;;5087839;28;43652;-72
2023/05/14 02:24:00;;;;;;;1.40;1.40;;;19.90;70.10;;;;;;5079514;28;43890;-69
2023/05/14 02:26:28;;;;;;;1.30;1.30;;;19.90;69.90;;;;;;5088449;28;43962;-69
2023/05/14 02:28:56;;;;;;;1.60;1.60;;;19.90;70.00;;;;;;5080651;27;43391;-69
2023/05/14 02:31:26;;;;;;;1.30;1.30;;;19.90;70.20;;;;;;5079153;27;43477;-70
2023/05/14 02:33:54;;;;;;;1.30;1.30;;;19.80;70.00;;;;;;5084382;28;43856;-70
2023/05/14 02:36:22;;;;;;;1.40;1.40;;;19.80;69.80;;;;;;5077325;27;43494;-69
2023/05/14 02:38:50;;;;;;;1.50;1.50;;;19.80;69.80;;;;;;5082657;28;43458;-69
2023/05/14 02:41:18;;;;;;;1.50;1.50;;;19.80;70.10;;;;;;5083172;27;43617;-69
2023/05/14 02:43:46;;;;;;;1.50;1.50;;;19.70;70.30;;;;;;5084330;28;43903;-69
2023/05/14 02:46:14;;;;;;;1.47;1.47;;;19.70;70.20;;;;;;5076803;27;44034;-69
2023/05/14 02:48:43;;;;;;;1.20;1.20;;;19.70;70.10;;;;;;5087386;28;43908;-69
2023/05/14 02:51:12;;;;;;;1.40;1.40;;;19.70;70.10;;;;;;5088541;27;43430;-69
2023/05/14 02:53:40;;;;;;;1.30;1.30;;;19.70;70.20;;;;;;5080488;28;43961;-69
2023/05/14 02:56:08;;;;;;;1.37;1.37;;;19.70;70.60;;;;;;5081560;28;43379;-70
2023/05/14 02:58:36;;;;;;;1.30;1.30;;;19.70;70.40;;;;;;5077226;28;43725;-69
2023/05/14 03:01:04;;;;;;;1.20;1.20;;;19.90;70.20;;;;;;5078431;28;43541;-70
2023/05/14 03:03:32;;;;;;;1.30;1.30;;;20.00;69.70;;;;;;5086232;28;45993;-72
2023/05/14 03:06:02;;;;;;;1.33;1.33;;;20.10;69.40;;;;;;5078142;28;44709;-70
2023/05/14 03:08:30;;;;;;;1.40;1.40;;;20.10;69.20;;;;;;5086485;27;43541;-69
2023/05/14 03:10:58;;;;;;;1.30;1.30;;;20.10;69.20;;;;;;5089186;28;43428;-69
2023/05/14 03:13:26;;;;;;;1.60;1.60;;;20.00;69.30;;;;;;5069822;27;43835;-69
2023/05/14 03:15:55;;;;;;;2.33;1.90;;;19.90;69.30;;;;;;5079093;28;43474;-70
2023/05/14 03:18:23;;;;;;;1.90;1.80;;;19.90;69.90;;;;;;5087351;28;43439;-69
2023/05/14 03:20:51;;;;;;;1.97;1.87;;;19.90;70.00;;;;;;5083550;27;43438;-70
2023/05/14 03:23:20;;;;;;;1.80;1.70;;;19.80;69.80;;;;;;5076425;27;43835;-69
2023/05/14 03:25:48;;;;;;;2.20;2.00;;;19.80;69.90;;;;;;5068919;28;44771;-71
2023/05/14 03:28:19;;;;;;;2.70;2.50;;;19.80;70.00;;;;;;5079157;28;43432;-69
2023/05/14 03:30:46;;;;;;;3.27;2.77;;;19.70;70.30;;;;;;5075076;28;43412;-70
2023/05/14 03:33:14;;;;;;;2.90;2.70;;;19.70;70.40;;;;;;5079421;28;46044;-70
2023/05/14 03:35:42;;;;;;;2.97;2.77;;;19.70;70.20;;;;;;5088628;28;44120;-70
2023/05/14 03:38:10;;;;;;;2.73;2.63;;;19.70;70.10;;;;;;5083266;28;43480;-70
2023/05/14 03:40:40;;;;;;;3.77;3.40;;;19.70;70.20;;;;;;5066061;28;43571;-70
2023/05/14 03:43:08;;;;;;;3.47;3.10;;;19.70;70.40;;;;;;5077264;27;43921;-70
2023/05/14 03:45:36;;;;;;;3.93;3.27;;;19.70;70.70;;;;;;5084628;28;44704;-70
2023/05/14 03:48:05;;;;;;;5.93;3.40;;;19.70;70.40;;;;;;5090612;28;43419;-70
2023/05/14 03:50:33;;;;;;;5.80;3.77;;;19.80;70.00;;;;;;5086794;28;44014;-70
2023/05/14 03:53:01;;;;;;;5.03;4.00;;;19.90;69.80;;;;;;5085936;28;44903;-70
2023/05/14 03:55:30;;;;;;;4.70;3.67;;;19.90;69.60;;;;;;5079577;28;44695;-70
2023/05/14 03:57:59;;;;;;;5.37;3.80;;;19.90;69.70;;;;;;5087250;27;43450;-70
2023/05/14 04:00:27;;;;;;;3.97;3.50;;;19.90;70.00;;;;;;5075679;28;43534;-69
2023/05/14 04:02:55;;;;;;;7.77;4.33;;;19.90;69.90;;;;;;5086316;28;45847;-70
2023/05/14 04:05:24;;;;;;;6.33;4.00;;;19.90;69.80;;;;;;5087270;27;44681;-69
2023/05/14 04:07:52;;;;;;;4.90;4.17;;;19.80;69.70;;;;;;5088493;27;43403;-70
2023/05/14 04:10:20;;;;;;;5.43;4.13;;;19.80;69.90;;;;;;5086959;28;43446;-69
2023/05/14 04:12:48;;;;;;;7.10;4.60;;;19.80;70.30;;;;;;5087905;27;44977;-70
2023/05/14 04:15:19;;;;;;;6.23;4.10;;;19.80;70.30;;;;;;5089648;28;43978;-70
2023/05/14 04:17:47;;;;;;;6.30;4.30;;;19.80;70.10;;;;;;5089003;27;43382;-70
2023/05/14 04:20:15;;;;;;;5.17;4.20;;;19.70;70.00;;;;;;5088087;27;43535;-70
2023/05/14 04:22:43;;;;;;;5.70;4.30;;;19.70;70.10;;;;;;5086291;27;44808;-70
2023/05/14 04:25:11;;;;;;;7.47;4.30;;;19.70;70.50;;;;;;5079868;28;44955;-70
2023/05/14 04:27:39;;;;;;;6.23;4.10;;;19.70;70.50;;;;;;5084903;28;43439;-70
2023/05/14 04:30:08;;;;;;;6.27;4.23;;;19.80;70.20;;;;;;5082064;27;43625;-70
2023/05/14 04:32:38;;;;;;;6.40;4.57;;;19.90;70.00;;;;;;5080060;28;45236;-70
2023/05/14 04:35:08;;;;;;;6.47;4.60;;;19.90;69.70;;;;;;5080455;27;43411;-69
2023/05/14 04:37:36;;;;;;;5.33;4.47;;;19.90;69.50;;;;;;5081657;28;43382;-70
2023/05/14 04:40:05;;;;;;;5.20;4.37;;;19.90;69.80;;;;;;5087283;27;43549;-69
2023/05/14 04:42:33;;;;;;;4.53;4.13;;;19.90;69.90;;;;;;5083876;28;43906;-69
2023/05/14 04:45:01;;;;;;;5.63;3.93;;;19.90;69.70;;;;;;5089009;27;43921;-69
2023/05/14 04:47:29;;;;;;;7.03;4.37;;;19.90;69.70;;;;;;5085037;27;44182;-69
2023/05/14 04:49:58;;;;;;;4.93;4.27;;;19.80;69.70;;;;;;5079632;28;43374;-69
2023/05/14 04:52:26;;;;;;;8.47;5.00;;;19.80;70.10;;;;;;5072715;28;44099;-70
2023/05/14 04:54:56;;;;;;;5.97;4.53;;;19.80;70.20;;;;;;5085036;27;43499;-69
2023/05/14 04:57:24;;;;;;;5.47;4.30;;;19.80;70.00;;;;;;5079751;28;43547;-69
2023/05/14 04:59:52;;;;;;;5.20;3.87;;;19.80;70.10;;;;;;5083878;27;43495;-69
2023/05/14 05:02:20;;;;;;;5.57;4.37;;;19.80;70.10;;;;;;5081535;28;44089;-71
2023/05/14 05:04:48;;;;;;;5.17;4.30;;;19.70;70.40;;;;;;5087277;28;44729;-70
2023/05/14 05:07:17;;;;;;;6.17;4.23;;;19.70;70.40;;;;;;5082081;28;43434;-70
2023/05/14 05:09:45;;;;;;;4.30;3.90;;;19.80;70.10;;;;;;5090969;27;43540;-71
2023/05/14 05:12:13;;;;;;;4.47;4.03;;;20.00;69.80;;;;;;5084508;27;43590;-70
2023/05/14 05:14:41;;;;;;;4.23;3.73;;;20.10;69.50;;;;;;5082057;28;44032;-70
2023/05/14 05:17:09;;;;;;;5.40;3.80;;;20.10;69.30;;;;;;5090091;28;43467;-70
2023/05/14 05:19:37;;;;;;;5.10;3.87;;;20.10;69.10;;;;;;5080778;27;43431;-70
2023/05/14 05:22:11;;;;;;;5.20;4.20;;;20.00;69.20;;;;;;5081140;28;43878;-70
2023/05/14 05:24:40;;;;;;;6.07;4.67;;;19.90;69.30;;;;;;5078189;28;43361;-70
2023/05/14 05:27:09;;;;;;;4.43;4.03;;;19.80;69.70;;;;;;5081610;27;43660;-70
2023/05/14 05:29:38;;;;;;;4.60;4.10;;;19.80;69.90;;;;;;5087916;28;43557;-70
2023/05/14 05:32:06;;;;;;;4.40;4.00;;;19.80;69.80;;;;;;5087761;28;43914;-70
2023/05/14 05:34:34;;;;;;;4.93;3.97;;;19.80;69.80;;;;;;5074798;27;43447;-70
2023/05/14 05:37:03;;;;;;;4.00;3.70;;;19.80;69.90;;;;;;5083499;28;43433;-71
2023/05/14 05:39:33;;;;;;;4.53;4.10;;;19.70;70.10;;;;;;5080423;28;43901;-70
2023/05/14 05:42:03;;;;;;;5.33;3.93;;;19.70;70.40;;;;;;5088309;28;43788;-70
2023/05/14 05:44:31;;;;;;;4.00;3.63;;;19.80;70.20;;;;;;5081768;28;45044;-70
2023/05/14 05:47:02;;;;;;;3.80;3.53;;;19.70;70.10;;;;;;5074351;27;43418;-70
2023/05/14 05:49:30;;;;;;;3.90;3.60;;;19.70;70.10;;;;;;5074050;28;43403;-70
2023/05/14 05:51:58;;;;;;;5.43;4.07;;;19.70;70.20;;;;;;5085204;28;43932;-70
2023/05/14 05:54:26;;;;;;;4.53;4.07;;;19.70;70.60;;;;;;5079876;28;43889;-70
2023/05/14 05:56:53;;;;;;;4.47;4.07;;;19.80;70.50;;;;;;5081275;28;43596;-70
2023/05/14 05:59:23;;;;;;;4.13;3.83;;;19.80;70.10;;;;;;5081833;28;43531;-70
2023/05/14 06:01:51;;;;;;;3.93;3.70;;;20.00;69.70;;;;;;5082774;28;46092;-70
2023/05/14 06:04:21;;;;;;;3.97;3.50;;;20.10;69.50;;;;;;5081993;27;43557;-70
2023/05/14 06:06:48;;;;;;;4.07;3.67;;;20.10;69.30;;;;;;5083252;27;44071;-70
2023/05/14 06:09:16;;;;;;;3.90;3.60;;;20.00;69.10;;;;;;5089785;28;43529;-70
2023/05/14 06:11:44;;;;;;;3.80;3.50;;;20.00;69.40;;;;;;5085276;28;43906;-70
2023/05/14 06:14:12;;;;;;;4.53;4.10;;;19.90;69.50;;;;;;5088575;28;43880;-70
2023/05/14 06:16:41;;;;;;;3.97;3.60;;;19.80;69.90;;;;;;5084663;27;43469;-70
2023/05/14 06:19:09;;;;;;;4.03;3.77;;;19.80;69.90;;;;;;5090056;27;43441;-70
2023/05/14 06:21:38;;;;;;;3.60;3.40;;;19.80;69.80;;;;;;5081048;27;43696;-70
2023/05/14 06:24:06;;;;;;;3.77;3.47;;;19.80;69.90;;;;;;5085206;28;43371;-70
2023/05/14 06:26:34;;;;;;;3.80;3.50;;;19.80;70.00;;;;;;5082476;27;44023;-70
2023/05/14 06:29:02;;;;;;;4.07;3.63;;;19.70;70.30;;;;;;5084918;28;43491;-72
2023/05/14 06:31:30;;;;;;;3.93;3.63;;;19.80;70.50;;;;;;5081472;28;43792;-70
2023/05/14 06:33:59;;;;;;;4.33;3.70;;;19.80;70.30;;;;;;5084630;28;43488;-70
2023/05/14 06:36:27;;;;;;;3.40;3.20;;;19.90;70.00;;;;;;5087053;28;43308;-70
2023/05/14 06:38:55;;;;;;;3.30;3.10;;;19.90;69.80;;;;;;5079817;28;43713;-70
2023/05/14 06:41:23;;;;;;;3.77;3.50;;;19.90;69.60;;;;;;5089458;28;43615;-70
2023/05/14 06:43:51;;;;;;;4.10;3.80;;;19.90;70.00;;;;;;5079751;28;44653;-70
2023/05/14 06:46:19;;;;;;;3.80;3.50;;;19.90;70.00;;;;;;5084700;28;43379;-70
2023/05/14 06:48:47;;;;;;;3.70;3.50;;;19.80;69.80;;;;;;5085641;28;43441;-69
2023/05/14 06:51:18;;;;;;;3.37;3.17;;;19.80;69.80;;;;;;5082227;28;45718;-70
2023/05/14 06:53:47;;;;;;;3.57;3.27;;;19.80;69.80;;;;;;5081934;27;44629;-69
2023/05/14 06:56:15;;;;;;;3.07;2.87;;;19.80;70.20;;;;;;5077818;28;43729;-70
2023/05/14 06:58:45;;;;;;;3.63;3.33;;;19.70;70.30;;;;;;5079891;27;43482;-70
2023/05/14 07:01:13;;;;;;;3.53;3.23;;;19.70;70.10;;;;;;5083131;27;43859;-69
2023/05/14 07:03:41;;;;;;;3.47;3.27;;;19.80;70.20;;;;;;5070055;28;43411;-68
2023/05/14 07:06:08;;;;;;;3.40;3.20;;;19.70;70.20;;;;;;5077302;28;43405;-71
2023/05/14 07:08:41;;;;;;;3.53;3.30;;;19.70;70.40;;;;;;5062398;28;43499;-71
2023/05/14 07:11:08;;;;;;;3.53;3.27;;;19.70;70.50;;;;;;5074623;28;46038;-71
2023/05/14 07:13:39;;;;;;;3.60;3.30;;;19.70;70.40;;;;;;5074446;28;44066;-70
2023/05/14 07:16:08;;;;;;;3.60;3.30;;;19.70;70.30;;;;;;5078006;28;43369;-70
2023/05/14 07:18:36;;;;;;;3.30;3.10;;;19.70;70.30;;;;;;5081545;27;43583;-70
2023/05/14 07:21:05;;;;;;;3.60;3.30;;;19.70;70.40;;;;;;5082238;28;43768;-70
2023/05/14 07:23:35;;;;;;;3.40;3.20;;;19.60;70.60;;;;;;5081954;28;43964;-70
2023/05/14 07:26:04;;;;;;;3.80;3.53;;;19.70;70.70;;;;;;5078621;28;43407;-71
2023/05/14 07:28:32;;;;;;;3.27;3.07;;;19.80;70.40;;;;;;5082725;28;43411;-72
2023/05/14 07:31:00;;;;;;;3.50;3.30;;;19.90;70.00;;;;;;5079844;28;44107;-71
2023/05/14 07:33:31;;;;;;;3.47;3.23;;;20.00;69.60;;;;;;5072081;28;44298;-70
2023/05/14 07:36:02;;;;;;;3.60;3.40;;;20.00;69.40;;;;;;5081193;28;43441;-70
2023/05/14 07:38:30;;;;;;;3.60;3.30;;;20.10;69.30;;;;;;5077725;28;43468;-70
2023/05/14 07:40:58;;;;;;;3.40;3.10;;;20.00;69.40;;;;;;5072209;28;43919;-70
2023/05/14 07:43:27;;;;;;;3.40;3.20;;;19.90;69.40;;;;;;5084041;27;43421;-70
2023/05/14 07:45:55;;;;;;;3.43;3.23;;;19.90;69.80;;;;;;5082821;28;43475;-70
2023/05/14 07:48:23;;;;;;;3.47;3.23;;;19.80;70.00;;;;;;5079589;28;43398;-70
2023/05/14 07:50:51;;;;;;;3.40;3.20;;;19.80;70.00;;;;;;5082858;28;45029;-70
2023/05/14 07:53:19;;;;;;;3.00;2.90;;;19.80;70.00;;;;;;5085314;28;43381;-70
2023/05/14 07:55:48;;;;;;;3.00;2.90;;;19.80;70.10;;;;;;5076615;28;43410;-69
2023/05/14 07:58:16;;;;;;;4.07;3.23;;;19.70;70.30;;;;;;5084852;28;43501;-70
2023/05/14 08:00:45;;;;;;;2.97;2.80;;;19.70;70.40;;;;;;5080254;27;43637;-70
2023/05/14 08:03:13;;;;;;;3.30;3.10;;;19.70;70.30;;;;;;5081917;28;43556;-70
2023/05/14 08:05:41;;;;;;;3.30;3.10;;;19.70;70.30;;;;;;5086361;27;43483;-70
2023/05/14 08:08:13;;;;;;;3.03;2.87;;;19.70;70.30;;;;;;5073361;28;43544;-71
2023/05/14 08:10:47;;;;;;;3.20;3.00;;;19.60;70.30;;;;;;5079141;28;46051;-70
2023/05/14 08:13:15;;;;;;;3.50;3.30;;;19.60;70.70;;;;;;5078309;28;43417;-70
2023/05/14 08:15:45;;;;;;;3.03;2.87;;;19.70;70.60;;;;;;5078506;28;43490;-70
2023/05/14 08:18:13;;;;;;;3.07;2.87;;;19.80;70.30;;;;;;5079952;28;43578;-70
2023/05/14 08:20:41;;;;;;;3.17;2.97;;;19.80;70.00;;;;;;5083665;28;43922;-70
2023/05/14 08:23:09;;;;;;;3.20;3.00;;;19.90;69.90;;;;;;5079332;28;43418;-72
2023/05/14 08:25:37;;;;;;;3.63;3.43;;;19.80;69.90;;;;;;5066999;28;43363;-70
2023/05/14 08:28:05;;;;;;;2.77;2.67;;;19.80;70.20;;;;;;5087524;28;43402;-70
2023/05/14 08:30:35;;;;;;;2.77;2.67;;;19.80;70.10;;;;;;5081076;28;45705;-70
2023/05/14 08:33:05;;;;;;;2.80;2.60;;;19.80;70.00;;;;;;5078917;27;43386;-71
2023/05/14 08:35:33;;;;;;;3.00;2.80;;;19.80;70.00;;;;;;5084358;27;43475;-70
2023/05/14 08:38:01;;;;;;;3.03;2.87;;;19.80;70.10;;;;;;5084658;28;43569;-70
2023/05/14 08:40:29;;;;;;;2.97;2.87;;;19.70;70.50;;;;;;5084126;28;43910;-71
2023/05/14 08:42:57;;;;;;;3.20;3.00;;;19.70;70.40;;;;;;5082895;28;44729;-70
2023/05/14 08:45:28;;;;;;;2.80;2.60;;;19.70;70.30;;;;;;5085455;28;43438;-70
2023/05/14 08:47:56;;;;;;;3.13;2.93;;;19.70;70.30;;;;;;5088435;28;43485;-70
2023/05/14 08:50:26;;;;;;;3.70;3.40;;;19.70;70.40;;;;;;5079443;27;45704;-70
2023/05/14 08:52:54;;;;;;;3.00;2.80;;;19.70;70.70;;;;;;5083258;28;43433;-70
2023/05/14 08:55:25;;;;;;;2.80;2.70;;;19.70;70.80;;;;;;5084642;28;43476;-70
2023/05/14 08:57:53;;;;;;;3.23;3.03;;;19.80;70.50;;;;;;5073693;28;43562;-70
2023/05/14 09:00:21;;;;;;;2.70;2.60;;;19.90;70.20;;;;;;5077844;28;43898;-70
2023/05/14 09:02:50;;;;;;;2.60;2.50;;;20.00;69.80;;;;;;5085214;27;43336;-70
2023/05/14 09:05:18;;;;;;;2.83;2.63;;;20.00;69.60;;;;;;5086626;28;44186;-70
2023/05/14 09:07:47;;;;;;;2.50;2.40;;;20.00;69.50;;;;;;5086139;28;43375;-70
2023/05/14 09:10:16;;;;;;;3.03;2.90;;;20.00;69.60;;;;;;5074037;28;43989;-70
2023/05/14 09:12:44;;;;;;;2.83;2.70;;;19.90;69.70;;;;;;5083495;28;43363;-70
2023/05/14 09:15:12;;;;;;;2.80;2.70;;;19.80;69.80;;;;;;5081440;27;43393;-70
2023/05/14 09:17:40;;;;;;;3.00;2.90;;;19.80;70.30;;;;;;5070270;28;43483;-72
2023/05/14 09:20:10;;;;;;;2.83;2.73;;;19.80;70.90;;;;;;5072870;28;43840;-70
2023/05/14 09:22:38;;;;;;;2.87;2.77;;;19.80;70.30;;;;;;5089998;28;43449;-70
2023/05/14 09:25:10;;;;;;;3.10;2.90;;;19.70;70.30;;;;;;5080808;27;43442;-70
2023/05/14 09:27:38;;;;;;;2.80;2.70;;;19.70;70.40;;;;;;5087428;27;43406;-70
2023/05/14 09:30:08;;;;;;;2.93;2.73;;;19.70;70.70;;;;;;5083508;28;43987;-70
2023/05/14 09:32:39;;;;;;;2.60;2.50;;;19.60;70.40;;;;;;5071292;28;43386;-70
2023/05/14 09:35:16;;;;;;;2.90;2.80;;;19.70;70.50;;;;;;5081113;28;44078;-71
2023/05/14 09:37:46;;;;;;;2.50;2.40;;;19.70;70.50;;;;;;5069375;28;43523;-71
2023/05/14 09:40:18;;;;;;;2.70;2.60;;;19.60;70.50;;;;;;5083268;28;43897;-70
2023/05/14 09:42:47;;;;;;;2.50;2.40;;;19.60;70.80;;;;;;5073361;28;43405;-70
2023/05/14 09:45:15;;;;;;;3.03;2.93;;;19.70;70.80;;;;;;5076925;28;43456;-70
2023/05/14 09:47:43;;;;;;;2.70;2.60;;;19.80;70.60;;;;;;5067032;28;43597;-70
2023/05/14 09:50:12;;;;;;;2.43;2.33;;;19.90;70.20;;;;;;5078072;27;43708;-70
2023/05/14 09:52:40;;;;;;;2.50;2.40;;;20.00;69.80;;;;;;5085747;28;43474;-70
2023/05/14 09:55:08;;;;;;;2.83;2.67;;;20.00;69.60;;;;;;5076737;28;43484;-70
2023/05/14 09:57:38;;;;;;;2.73;2.63;;;20.00;69.50;;;;;;5081047;27;43442;-70
2023/05/14 10:00:08;;;;;;;2.30;2.20;;;20.00;69.70;;;;;;5075054;27;43988;-70
2023/05/14 10:02:37;;;;;;;2.83;2.73;;;19.90;69.80;;;;;;5073603;28;45161;-70
2023/05/14 10:05:06;;;;;;;2.37;2.37;;;19.90;70.20;;;;;;5084283;27;43430;-70
2023/05/14 10:07:36;;;;;;;2.43;2.33;;;19.80;70.20;;;;;;5072141;28;43447;-70
2023/05/14 10:10:10;;;;;;;2.50;2.40;;;19.80;70.20;;;;;;5068614;28;43601;-70
2023/05/14 10:12:40;;;;;;;2.57;2.47;;;19.80;70.20;;;;;;5071099;28;45062;-70
2023/05/14 10:15:12;;;;;;;2.50;2.40;;;19.70;70.30;;;;;;5074784;27;43477;-70
2023/05/14 10:17:41;;;;;;;2.43;2.33;;;19.70;70.50;;;;;;5076910;27;43446;-70
2023/05/14 10:20:12;;;;;;;2.40;2.30;;;19.70;70.70;;;;;;5074082;28;45850;-70
2023/05/14 10:22:43;;;;;;;2.30;2.30;;;19.70;70.50;;;;;;5083646;28;43426;-70
2023/05/14 10:25:11;;;;;;;2.50;2.40;;;19.70;70.50;;;;;;5071140;28;43452;-70
2023/05/14 10:27:41;;;;;;;2.50;2.40;;;19.70;70.60;;;;;;5071593;28;43507;-71
2023/05/14 10:30:12;;;;;;;2.50;2.40;;;19.70;70.70;;;;;;5067247;28;44033;-70
2023/05/14 10:32:42;;;;;;;2.13;2.03;;;19.60;70.80;;;;;;5078195;28;43497;-70
2023/05/14 10:35:19;;;;;;;2.50;2.40;;;19.70;70.80;;;;;;5077974;28;43529;-70
2023/05/14 10:37:47;;;;;;;2.40;2.30;;;19.80;70.60;;;;;;5072722;28;43410;-71
2023/05/14 10:40:16;;;;;;;2.43;2.40;;;19.90;70.10;;;;;;5081613;28;43916;-70
2023/05/14 10:42:45;;;;;;;2.50;2.50;;;20.00;69.80;;;;;;5077854;28;43469;-70
2023/05/14 10:45:19;;;;;;;2.80;2.70;;;20.00;69.70;;;;;;5078281;27;43469;-70
2023/05/14 10:47:47;;;;;;;2.30;2.20;;;20.00;69.70;;;;;;5085300;27;43451;-70
2023/05/14 10:50:16;;;;;;;2.33;2.23;;;20.00;69.90;;;;;;5084268;28;43676;-70
2023/05/14 10:52:44;;;;;;;2.60;2.50;;;19.90;70.00;;;;;;5077132;27;45128;-70
2023/05/14 10:55:13;;;;;;;2.50;2.40;;;19.80;70.30;;;;;;5083291;28;44002;-70
2023/05/14 10:57:42;;;;;;;2.57;2.47;;;19.80;70.40;;;;;;5075277;28;43462;-70
2023/05/14 11:00:14;;;;;;;2.40;2.30;;;19.80;70.40;;;;;;5081199;28;47217;-70
2023/05/14 11:02:43;;;;;;;2.27;2.17;;;19.80;70.40;;;;;;5075411;28;43979;-71
2023/05/14 11:05:12;;;;;;;2.50;2.40;;;19.80;70.50;;;;;;5077800;28;43414;-72
2023/05/14 11:07:41;;;;;;;2.53;2.43;;;19.70;70.60;;;;;;5070333;28;43404;-70
2023/05/14 11:10:10;;;;;;;2.47;2.40;;;19.70;70.70;;;;;;5063130;28;43835;-71
2023/05/14 11:12:41;;;;;;;1.80;1.80;;;19.70;70.70;;;;;;5062095;28;43471;-70
2023/05/14 11:15:11;;;;;;;2.23;2.13;;;19.70;70.60;;;;;;5088923;27;43395;-70
2023/05/14 11:17:42;;;;;;;2.03;1.93;;;19.70;70.70;;;;;;5072323;28;44011;-70
2023/05/14 11:20:11;;;;;;;2.37;2.27;;;19.70;70.80;;;;;;5085587;27;43706;-70
2023/05/14 11:22:40;;;;;;;2.50;2.40;;;19.70;71.00;;;;;;5084677;27;43602;-70
2023/05/14 11:25:13;;;;;;;2.20;2.10;;;19.70;70.90;;;;;;5075050;27;44019;-70
2023/05/14 11:27:42;;;;;;;2.07;2.07;;;19.80;70.60;;;;;;5080123;28;43521;-70
2023/05/14 11:30:14;;;;;;;2.00;2.00;;;19.90;70.30;;;;;;5078858;28;45667;-71
2023/05/14 11:32:45;;;;;;;2.30;2.20;;;19.90;70.20;;;;;;5082749;28;46208;-70
2023/05/14 11:35:14;;;;;;;2.20;2.20;;;19.90;70.20;;;;;;5088376;28;43426;-70
2023/05/14 11:37:42;;;;;;;2.00;2.00;;;19.90;70.50;;;;;;5084479;27;43454;-70
2023/05/14 11:40:15;;;;;;;1.90;1.90;;;19.90;70.30;;;;;;5081265;28;43931;-70
2023/05/14 11:42:44;;;;;;;2.13;2.13;;;19.80;70.20;;;;;;5084439;28;43366;-70
2023/05/14 11:45:12;;;;;;;2.27;2.20;;;19.80;70.30;;;;;;5085147;27;43422;-70
2023/05/14 11:47:41;;;;;;;2.23;2.13;;;19.80;70.40;;;;;;5082100;28;43496;-70
2023/05/14 11:50:11;;;;;;;2.00;2.00;;;19.80;70.70;;;;;;5084385;28;43806;-70
2023/05/14 11:52:39;;;;;;;2.40;2.30;;;19.80;70.60;;;;;;5075167;28;45130;-70
2023/05/14 11:55:10;;;;;;;2.23;2.23;;;19.80;70.50;;;;;;5075862;28;44062;-70
2023/05/14 11:57:39;;;;;;;1.80;1.80;;;19.80;70.60;;;;;;5072774;28;44160;-70
2023/05/14 12:00:09;;;;;;;2.00;2.00;;;19.70;70.50;;;;;;5075071;28;43945;-70
2023/05/14 12:02:37;;;;;;;2.07;2.07;;;19.70;70.70;;;;;;5080598;28;44274;-70
2023/05/14 12:05:07;;;;;;;2.00;2.00;;;19.70;70.80;;;;;;5080251;27;43493;-70
2023/05/14 12:07:37;;;;;;;1.97;1.97;;;19.70;70.80;;;;;;5083064;28;43543;-70
2023/05/14 12:10:08;;;;;;;1.97;1.97;;;19.70;70.70;;;;;;5071996;28;45901;-70
2023/05/14 12:12:36;;;;;;;1.90;1.90;;;19.70;70.80;;;;;;5081217;27;43441;-70
2023/05/14 12:15:12;;;;;;;2.00;1.90;;;19.70;70.80;;;;;;5087340;27;43592;-70
2023/05/14 12:17:41;;;;;;;1.93;1.90;;;19.70;71.00;;;;;;5083635;27;43510;-70
2023/05/14 12:20:11;;;;;;;2.03;2.03;;;19.70;70.90;;;;;;5082685;27;43859;-71
2023/05/14 12:22:41;;;;;;;2.00;2.00;;;19.80;70.60;;;;;;5082728;27;44044;-69
2023/05/14 12:25:11;;;;;;;1.80;1.80;;;20.00;70.30;;;;;;5085826;28;43396;-70
2023/05/14 12:27:39;;;;;;;2.40;2.30;;;20.00;69.80;;;;;;5087679;28;43513;-70
2023/05/14 12:30:08;;;;;;;2.03;2.03;;;20.10;69.80;;;;;;5080394;28;43931;-70
2023/05/14 12:32:39;;;;;;;1.83;1.83;;;20.00;69.60;;;;;;5082296;28;43485;-70
2023/05/14 12:35:08;;;;;;;1.80;1.80;;;20.00;69.80;;;;;;5084658;27;43408;-70
2023/05/14 12:37:38;;;;;;;1.83;1.73;;;19.90;70.00;;;;;;5083582;28;43417;-70
2023/05/14 12:40:08;;;;;;;1.63;1.63;;;19.90;70.30;;;;;;5086342;28;43920;-70
2023/05/14 12:42:40;;;;;;;1.60;1.60;;;19.90;70.40;;;;;;5083536;28;44761;-70
2023/05/14 12:45:08;;;;;;;2.00;1.90;;;19.80;70.30;;;;;;5082672;27;43455;-71
2023/05/14 12:47:36;;;;;;;1.83;1.73;;;19.80;70.40;;;;;;5076293;28;43404;-70
2023/05/14 12:50:05;;;;;;;1.80;1.80;;;19.80;70.50;;;;;;5082191;28;45657;-70
2023/05/14 12:52:33;;;;;;;1.70;1.70;;;19.80;70.80;;;;;;5088213;28;45124;-70
2023/05/14 12:55:08;;;;;;;1.87;1.87;;;19.80;70.90;;;;;;5082473;28;43489;-69
2023/05/14 12:57:37;;;;;;;1.80;1.80;;;19.80;70.60;;;;;;5084763;28;43359;-70